createdAt,value
2023-03-05T00:00:10.186Z,3.11
2023-03-05T00:00:42.820Z,3.11
2023-03-05T00:01:15.353Z,3.11
2023-03-05T00:02:00.964Z,3.11
2023-03-05T00:02:23.284Z,3.11
2023-03-05T00:02:49.582Z,3.11
2023-03-05T00:03:10.738Z,3.11
2023-03-05T00:03:33.648Z,3.22
2023-03-05T00:04:09.094Z,3.22
2023-03-05T00:04:41.118Z,3.22
2023-03-05T00:05:12.859Z,3.22
2023-03-05T00:05:44.116Z,3.22
2023-03-05T00:06:16.829Z,3.22
2023-03-05T00:06:48.444Z,3.22
2023-03-05T00:07:11.166Z,3.22
2023-03-05T00:07:33.885Z,3.22
2023-03-05T00:08:09.649Z,3.22
2023-03-05T00:08:40.577Z,3.22
2023-03-05T00:09:12.905Z,3.22
2023-03-05T00:09:44.222Z,3.22
2023-03-05T00:10:16.556Z,3.22
2023-03-05T00:10:49.201Z,3.22
2023-03-05T00:11:13.368Z,3.22
2023-03-05T00:11:34.466Z,3.22
2023-03-05T00:12:11.300Z,3.22
2023-03-05T00:12:40.586Z,3.22
2023-03-05T00:13:13.916Z,3.22
2023-03-05T00:13:44.186Z,3.22
2023-03-05T00:14:16.578Z,3.22
2023-03-05T00:14:48.474Z,3.22
2023-03-05T00:15:11.396Z,3.22
2023-03-05T00:15:34.289Z,3.22
2023-03-05T00:16:10.893Z,3.22
2023-03-05T00:16:40.632Z,3.22
2023-03-05T00:17:12.834Z,3.22
2023-03-05T00:17:44.895Z,3.22
2023-03-05T00:18:17.055Z,3.22
2023-03-05T00:18:48.999Z,3.22
2023-03-05T00:19:11.831Z,3.22
2023-03-05T00:19:34.080Z,3.22
2023-03-05T00:20:11.432Z,3.22
2023-03-05T00:20:40.426Z,3.22
2023-03-05T00:21:14.432Z,3.22
2023-03-05T00:21:44.260Z,3.22
2023-03-05T00:22:17.472Z,3.22
2023-03-05T00:22:49.246Z,3.22
2023-03-05T00:23:12.497Z,3.22
2023-03-05T00:23:34.618Z,3.22
2023-03-05T00:24:09.250Z,3.22
2023-03-05T00:24:40.968Z,3.22
2023-03-05T00:25:13.569Z,3.22
2023-03-05T00:25:45.377Z,3.22
2023-03-05T00:26:17.166Z,3.22
2023-03-05T00:26:48.533Z,3.22
2023-03-05T00:27:12.830Z,3.22
2023-03-05T00:27:33.689Z,3.22
2023-03-05T00:28:08.673Z,3.22
2023-03-05T00:28:41.337Z,3.22
2023-03-05T00:29:13.234Z,3.22
2023-03-05T00:29:44.350Z,3.22
2023-03-05T00:30:16.603Z,3.22
2023-03-05T00:30:49.366Z,3.22
2023-03-05T00:31:13.675Z,3.22
2023-03-05T00:31:34.620Z,3.22
2023-03-05T00:32:08.517Z,3.22
2023-03-05T00:32:40.515Z,3.22
2023-03-05T00:33:13.964Z,3.22
2023-03-05T00:33:44.220Z,3.22
2023-03-05T00:34:16.719Z,3.11
2023-03-05T00:34:48.557Z,3.11
2023-03-05T00:35:11.318Z,3.11
2023-03-05T00:35:35.181Z,3.11
2023-03-05T00:36:09.244Z,3.11
2023-03-05T00:36:41.044Z,3.11
2023-03-05T00:37:14.372Z,3.11
2023-03-05T00:37:44.283Z,3.22
2023-03-05T00:38:16.529Z,3.22
2023-03-05T00:38:48.455Z,3.22
2023-03-05T00:39:11.205Z,3.22
2023-03-05T00:39:33.567Z,3.22
2023-03-05T00:40:09.530Z,3.22
2023-03-05T00:40:41.255Z,3.22
2023-03-05T00:41:14.726Z,3.22
2023-03-05T00:41:44.108Z,3.22
2023-03-05T00:42:16.445Z,3.22
2023-03-05T00:42:48.629Z,3.22
2023-03-05T00:43:11.352Z,3.22
2023-03-05T00:43:34.017Z,3.22
2023-03-05T00:44:09.483Z,3.22
2023-03-05T00:44:40.710Z,3.22
2023-03-05T00:45:15.442Z,3.22
2023-03-05T00:45:44.171Z,3.22
2023-03-05T00:46:16.835Z,3.22
2023-03-05T00:46:48.418Z,3.22
2023-03-05T00:47:11.115Z,3.22
2023-03-05T00:47:33.531Z,3.22
2023-03-05T00:48:08.636Z,3.22
2023-03-05T00:48:41.848Z,3.22
2023-03-05T00:49:12.544Z,3.22
2023-03-05T00:49:44.218Z,3.22
2023-03-05T00:50:17.099Z,3.22
2023-03-05T00:50:49.387Z,3.22
2023-03-05T00:51:11.867Z,3.22
2023-03-05T00:51:34.283Z,3.22
2023-03-05T00:52:09.446Z,3.22
2023-03-05T00:52:40.602Z,3.22
2023-03-05T00:53:13.320Z,3.22
2023-03-05T00:53:44.715Z,3.22
2023-03-05T00:54:17.236Z,3.22
2023-03-05T00:54:48.335Z,3.22
2023-03-05T00:55:10.987Z,3.22
2023-03-05T00:55:33.497Z,3.11
2023-03-05T00:56:08.535Z,3.11
2023-03-05T00:56:40.772Z,3.11
2023-03-05T00:57:12.997Z,3.11
2023-03-05T00:57:44.489Z,3.11
2023-03-05T00:58:17.135Z,3.11
2023-03-05T00:58:48.589Z,3.11
2023-03-05T00:59:11.233Z,3.11
2023-03-05T00:59:33.552Z,3.11
2023-03-05T01:00:10.157Z,3.11
2023-03-05T01:00:40.752Z,3.11
2023-03-05T01:01:13.197Z,3.11
2023-03-05T01:01:44.700Z,3.11
2023-03-05T01:02:17.827Z,3.11
2023-03-05T01:02:48.921Z,3.11
2023-03-05T01:03:11.980Z,3.11
2023-03-05T01:03:34.749Z,3.11
2023-03-05T01:04:09.323Z,3.11
2023-03-05T01:04:41.522Z,3.11
2023-03-05T01:05:12.624Z,3.11
2023-03-05T01:05:44.366Z,3.11
2023-03-05T01:06:18.186Z,3.11
2023-03-05T01:06:48.574Z,3.11
2023-03-05T01:07:11.394Z,3.11
2023-03-05T01:07:33.751Z,3.00
2023-03-05T01:08:08.632Z,3.00
2023-03-05T01:08:40.436Z,3.00
2023-03-05T01:09:14.200Z,3.00
2023-03-05T01:09:44.912Z,3.00
2023-03-05T01:10:18.831Z,3.00
2023-03-05T01:10:48.435Z,3.00
2023-03-05T01:11:11.477Z,3.00
2023-03-05T01:11:35.156Z,3.00
2023-03-05T01:12:08.867Z,3.00
2023-03-05T01:12:41.124Z,3.00
2023-03-05T01:13:12.736Z,3.00
2023-03-05T01:13:44.795Z,3.00
2023-03-05T01:14:16.436Z,3.00
2023-03-05T01:14:48.550Z,3.00
2023-03-05T01:15:11.431Z,3.00
2023-03-05T01:15:34.024Z,3.11
2023-03-05T01:16:09.355Z,3.11
2023-03-05T01:16:40.273Z,3.11
2023-03-05T01:17:13.098Z,3.11
2023-03-05T01:17:44.806Z,3.11
2023-03-05T01:18:16.647Z,3.11
2023-03-05T01:18:48.640Z,3.11
2023-03-05T01:19:11.186Z,3.11
2023-03-05T01:19:34.076Z,3.11
2023-03-05T01:20:08.385Z,3.11
2023-03-05T01:20:41.903Z,3.11
2023-03-05T01:21:13.214Z,3.11
2023-03-05T01:21:44.717Z,3.11
2023-03-05T01:22:16.856Z,3.11
2023-03-05T01:22:49.140Z,3.11
2023-03-05T01:23:11.868Z,3.11
2023-03-05T01:23:34.525Z,3.11
2023-03-05T01:24:09.205Z,3.11
2023-03-05T01:24:40.324Z,3.11
2023-03-05T01:25:12.446Z,3.11
2023-03-05T01:25:45.239Z,3.11
2023-03-05T01:26:16.902Z,3.11
2023-03-05T01:26:48.409Z,3.11
2023-03-05T01:27:11.051Z,3.11
2023-03-05T01:27:33.442Z,3.11
2023-03-05T01:28:08.536Z,3.11
2023-03-05T01:28:41.641Z,3.11
2023-03-05T01:29:13.309Z,3.11
2023-03-05T01:29:44.969Z,3.11
2023-03-05T01:30:16.332Z,3.11
2023-03-05T01:30:49.526Z,3.11
2023-03-05T01:31:13.475Z,3.11
2023-03-05T01:31:34.788Z,3.11
2023-03-05T01:32:10.244Z,3.11
2023-03-05T01:32:40.540Z,3.11
2023-03-05T01:33:13.503Z,3.11
2023-03-05T01:33:44.482Z,3.11
2023-03-05T01:34:16.541Z,3.11
2023-03-05T01:34:48.544Z,3.11
2023-03-05T01:35:11.114Z,3.11
2023-03-05T01:35:33.691Z,3.11
2023-03-05T01:36:10.504Z,3.11
2023-03-05T01:36:41.962Z,3.11
2023-03-05T01:37:13.326Z,3.11
2023-03-05T01:37:45.398Z,3.11
2023-03-05T01:38:18.817Z,3.11
2023-03-05T01:38:48.446Z,3.11
2023-03-05T01:39:11.335Z,3.11
2023-03-05T01:39:33.488Z,3.11
2023-03-05T01:40:09.497Z,3.11
2023-03-05T01:40:40.407Z,3.11
2023-03-05T01:41:12.588Z,3.11
2023-03-05T01:41:44.068Z,3.11
2023-03-05T01:42:16.785Z,3.11
2023-03-05T01:42:49.242Z,3.11
2023-03-05T01:43:12.166Z,3.11
2023-03-05T01:43:34.468Z,3.11
2023-03-05T01:44:08.364Z,3.11
2023-03-05T01:44:40.586Z,3.11
2023-03-05T01:45:12.782Z,3.11
2023-03-05T01:45:44.552Z,3.11
2023-03-05T01:46:16.514Z,3.11
2023-03-05T01:46:48.982Z,3.11
2023-03-05T01:47:11.572Z,3.11
2023-03-05T01:47:34.185Z,3.11
2023-03-05T01:48:08.862Z,3.11
2023-03-05T01:48:40.630Z,3.11
2023-03-05T01:49:12.458Z,3.11
2023-03-05T01:49:44.299Z,3.11
2023-03-05T01:50:16.950Z,3.11
2023-03-05T01:50:48.349Z,3.11
2023-03-05T01:51:11.123Z,3.11
2023-03-05T01:51:33.429Z,3.11
2023-03-05T01:52:08.384Z,3.11
2023-03-05T01:52:40.358Z,3.00
2023-03-05T01:53:12.996Z,3.00
2023-03-05T01:53:44.968Z,3.00
2023-03-05T01:54:16.429Z,3.00
2023-03-05T01:54:49.226Z,3.00
2023-03-05T01:55:11.970Z,3.00
2023-03-05T01:55:34.694Z,3.00
2023-03-05T01:56:08.949Z,3.00
2023-03-05T01:56:40.419Z,3.00
2023-03-05T01:57:13.228Z,3.00
2023-03-05T01:57:44.025Z,3.00
2023-03-05T01:58:16.545Z,2.88
2023-03-05T01:58:48.447Z,2.88
2023-03-05T01:59:10.952Z,2.88
2023-03-05T01:59:33.624Z,2.88
2023-03-05T02:00:09.317Z,2.88
2023-03-05T02:00:43.853Z,3.00
2023-03-05T02:01:12.425Z,3.00
2023-03-05T02:01:44.540Z,3.00
2023-03-05T02:02:17.122Z,3.00
2023-03-05T02:02:49.143Z,2.88
2023-03-05T02:03:11.588Z,2.88
2023-03-05T02:03:34.693Z,2.88
2023-03-05T02:04:09.327Z,2.88
2023-03-05T02:04:41.325Z,2.88
2023-03-05T02:05:13.326Z,2.88
2023-03-05T02:05:44.342Z,2.88
2023-03-05T02:06:17.170Z,2.88
2023-03-05T02:06:48.456Z,2.88
2023-03-05T02:07:11.191Z,2.88
2023-03-05T02:07:33.724Z,2.88
2023-03-05T02:08:08.342Z,2.88
2023-03-05T02:08:40.492Z,2.88
2023-03-05T02:09:12.541Z,2.88
2023-03-05T02:09:44.264Z,2.88
2023-03-05T02:10:16.500Z,2.88
2023-03-05T02:10:49.556Z,2.88
2023-03-05T02:11:12.356Z,2.88
2023-03-05T02:11:34.778Z,2.88
2023-03-05T02:12:09.168Z,2.88
2023-03-05T02:12:40.398Z,2.88
2023-03-05T02:13:13.046Z,2.88
2023-03-05T02:13:44.349Z,2.88
2023-03-05T02:14:17.379Z,2.88
2023-03-05T02:14:48.560Z,2.88
2023-03-05T02:15:11.051Z,2.88
2023-03-05T02:15:33.864Z,2.88
2023-03-05T02:16:08.813Z,2.88
2023-03-05T02:16:40.523Z,2.88
2023-03-05T02:17:12.658Z,2.88
2023-03-05T02:17:45.601Z,2.88
2023-03-05T02:18:16.322Z,2.88
2023-03-05T02:18:48.747Z,2.88
2023-03-05T02:19:11.573Z,2.88
2023-03-05T02:19:34.011Z,2.88
2023-03-05T02:20:08.963Z,2.88
2023-03-05T02:20:40.323Z,2.88
2023-03-05T02:21:12.489Z,2.88
2023-03-05T02:21:44.244Z,2.88
2023-03-05T02:22:17.154Z,2.88
2023-03-05T02:22:50.257Z,2.88
2023-03-05T02:23:11.681Z,2.88
2023-03-05T02:23:34.319Z,2.88
2023-03-05T02:24:08.292Z,2.88
2023-03-05T02:24:40.567Z,2.88
2023-03-05T02:25:12.795Z,2.88
2023-03-05T02:25:48.898Z,2.88
2023-03-05T02:26:12.951Z,2.88
2023-03-05T02:26:44.019Z,2.88
2023-03-05T02:27:15.672Z,2.88
2023-03-05T02:27:52.611Z,2.88
2023-03-05T02:28:15.392Z,2.88
2023-03-05T02:28:38.125Z,2.88
2023-03-05T02:29:12.420Z,2.88
2023-03-05T02:29:44.027Z,2.88
2023-03-05T02:30:16.444Z,2.88
2023-03-05T02:30:48.293Z,2.88
2023-03-05T02:31:13.644Z,2.88
2023-03-05T02:31:33.617Z,2.88
2023-03-05T02:32:08.547Z,2.88
2023-03-05T02:32:40.483Z,2.88
2023-03-05T02:33:12.364Z,2.88
2023-03-05T02:33:43.996Z,2.88
2023-03-05T02:34:16.357Z,2.88
2023-03-05T02:34:48.360Z,2.88
2023-03-05T02:35:11.073Z,2.88
2023-03-05T02:35:33.557Z,2.88
2023-03-05T02:36:08.588Z,2.88
2023-03-05T02:36:40.988Z,2.88
2023-03-05T02:37:12.400Z,2.88
2023-03-05T02:37:44.182Z,2.88
2023-03-05T02:38:16.331Z,2.88
2023-03-05T02:38:48.498Z,2.88
2023-03-05T02:39:11.272Z,2.88
2023-03-05T02:39:33.700Z,2.88
2023-03-05T02:40:08.610Z,2.88
2023-03-05T02:40:41.193Z,2.88
2023-03-05T02:41:12.453Z,2.88
2023-03-05T02:41:44.026Z,2.88
2023-03-05T02:42:16.263Z,2.88
2023-03-05T02:42:48.256Z,2.77
2023-03-05T02:43:11.354Z,2.77
2023-03-05T02:43:33.663Z,2.77
2023-03-05T02:44:08.630Z,2.88
2023-03-05T02:44:40.296Z,2.88
2023-03-05T02:45:12.407Z,2.88
2023-03-05T02:45:44.156Z,2.88
2023-03-05T02:46:16.467Z,2.88
2023-03-05T02:46:48.481Z,2.88
2023-03-05T02:47:12.599Z,2.88
2023-03-05T02:47:35.008Z,2.88
2023-03-05T02:48:09.788Z,2.88
2023-03-05T02:48:40.353Z,2.88
2023-03-05T02:49:12.250Z,2.88
2023-03-05T02:49:44.113Z,2.88
2023-03-05T02:50:16.334Z,2.88
2023-03-05T02:50:48.551Z,2.88
2023-03-05T02:51:11.435Z,2.88
2023-03-05T02:51:33.671Z,2.88
2023-03-05T02:52:08.537Z,2.88
2023-03-05T02:52:40.359Z,2.88
2023-03-05T02:53:12.316Z,2.88
2023-03-05T02:53:44.161Z,2.88
2023-03-05T02:54:16.546Z,2.77
2023-03-05T02:54:48.344Z,2.77
2023-03-05T02:55:11.361Z,2.77
2023-03-05T02:55:33.764Z,2.77
2023-03-05T02:56:08.234Z,2.88
2023-03-05T02:56:40.585Z,2.88
2023-03-05T02:57:12.411Z,2.88
2023-03-05T02:57:44.254Z,2.88
2023-03-05T02:58:16.402Z,2.88
2023-03-05T02:58:48.309Z,2.88
2023-03-05T02:59:11.377Z,2.88
2023-03-05T02:59:33.953Z,2.88
2023-03-05T03:01:12.548Z,2.88
2023-03-05T03:01:44.639Z,2.88
2023-03-05T03:02:28.095Z,2.88
2023-03-05T03:02:45.383Z,2.88
2023-03-05T03:03:15.716Z,2.88
2023-03-05T03:04:16.953Z,2.88
2023-03-05T03:04:39.370Z,2.88
2023-03-05T03:05:12.468Z,2.88
2023-03-05T03:05:44.056Z,2.88
2023-03-05T03:06:16.500Z,2.88
2023-03-05T03:06:48.372Z,2.88
2023-03-05T03:07:11.461Z,2.88
2023-03-05T03:07:35.129Z,2.88
2023-03-05T03:08:08.511Z,2.88
2023-03-05T03:08:40.372Z,2.88
2023-03-05T03:09:12.247Z,2.88
2023-03-05T03:09:45.648Z,2.88
2023-03-05T03:10:48.500Z,2.88
2023-03-05T03:11:12.137Z,2.88
2023-03-05T03:11:35.887Z,2.88
2023-03-05T03:12:08.275Z,2.88
2023-03-05T03:12:36.099Z,2.88
2023-03-05T03:13:12.826Z,2.88
2023-03-05T03:13:44.501Z,2.88
2023-03-05T03:14:17.671Z,2.88
2023-03-05T03:14:49.094Z,2.88
2023-03-05T03:15:11.508Z,2.88
2023-03-05T03:15:36.645Z,2.88
2023-03-05T03:16:09.035Z,2.88
2023-03-05T03:16:45.892Z,2.88
2023-03-05T03:17:18.415Z,2.88
2023-03-05T03:17:40.827Z,2.88
2023-03-05T03:18:16.425Z,2.88
2023-03-05T03:18:48.384Z,2.88
2023-03-05T03:19:11.158Z,2.88
2023-03-05T03:19:34.007Z,2.88
2023-03-05T03:20:09.890Z,2.88
2023-03-05T03:20:37.795Z,2.88
2023-03-05T03:21:15.229Z,2.88
2023-03-05T03:21:44.265Z,2.88
2023-03-05T03:22:17.099Z,2.88
2023-03-05T03:22:48.959Z,2.88
2023-03-05T03:23:19.637Z,2.88
2023-03-05T03:23:33.611Z,2.88
2023-03-05T03:24:08.554Z,2.88
2023-03-05T03:24:40.704Z,2.88
2023-03-05T03:25:14.639Z,2.88
2023-03-05T03:25:44.828Z,2.88
2023-03-05T03:26:16.326Z,2.88
2023-03-05T03:26:48.816Z,2.88
2023-03-05T03:27:11.456Z,2.88
2023-03-05T03:27:35.938Z,2.88
2023-03-05T03:28:11.425Z,2.88
2023-03-05T03:28:56.381Z,2.88
2023-03-05T03:29:21.948Z,2.88
2023-03-05T03:29:41.809Z,2.88
2023-03-05T03:30:16.473Z,2.88
2023-03-05T03:30:42.259Z,2.88
2023-03-05T03:31:21.551Z,2.88
2023-03-05T03:31:52.843Z,2.88
2023-03-05T03:32:15.585Z,2.88
2023-03-05T03:32:39.139Z,2.88
2023-03-05T03:33:12.544Z,2.77
2023-03-05T03:33:44.111Z,2.77
2023-03-05T03:34:16.694Z,2.77
2023-03-05T03:34:48.234Z,2.88
2023-03-05T03:35:11.038Z,2.88
2023-03-05T03:35:34.296Z,2.77
2023-03-05T03:36:08.362Z,2.88
2023-03-05T03:36:44.396Z,2.77
2023-03-05T03:37:06.788Z,2.77
2023-03-05T03:37:46.824Z,2.77
2023-03-05T03:38:16.319Z,2.77
2023-03-05T03:38:48.870Z,2.77
2023-03-05T03:39:12.393Z,2.77
2023-03-05T03:39:34.552Z,2.77
2023-03-05T03:40:11.821Z,2.77
2023-03-05T03:40:43.954Z,2.77
2023-03-05T03:41:10.010Z,2.77
2023-03-05T03:41:44.851Z,2.77
2023-03-05T03:42:16.653Z,2.77
2023-03-05T03:42:48.477Z,2.77
2023-03-05T03:43:11.243Z,2.77
2023-03-05T03:43:33.788Z,2.77
2023-03-05T03:44:09.866Z,2.77
2023-03-05T03:44:41.152Z,2.77
2023-03-05T03:45:12.591Z,2.77
2023-03-05T03:45:44.286Z,2.77
2023-03-05T03:46:16.313Z,2.77
2023-03-05T03:46:48.349Z,2.77
2023-03-05T03:47:11.134Z,2.77
2023-03-05T03:47:33.812Z,2.77
2023-03-05T03:48:08.904Z,2.77
2023-03-05T03:48:41.652Z,2.77
2023-03-05T03:49:12.600Z,2.77
2023-03-05T03:49:45.568Z,2.77
2023-03-05T03:50:16.686Z,2.77
2023-03-05T03:50:50.220Z,2.77
2023-03-05T03:51:13.124Z,2.77
2023-03-05T03:51:35.572Z,2.77
2023-03-05T03:52:08.528Z,2.77
2023-03-05T03:52:42.648Z,2.77
2023-03-05T03:53:13.222Z,2.77
2023-03-05T03:53:44.869Z,2.77
2023-03-05T03:54:17.275Z,2.77
2023-03-05T03:54:48.386Z,2.72
2023-03-05T03:55:11.002Z,2.72
2023-03-05T03:55:33.448Z,2.72
2023-03-05T03:56:08.400Z,2.72
2023-03-05T03:56:43.454Z,2.72
2023-03-05T03:57:12.882Z,2.72
2023-03-05T03:57:44.521Z,2.72
2023-03-05T03:58:16.838Z,2.72
2023-03-05T03:58:48.609Z,2.72
2023-03-05T03:59:11.214Z,2.72
2023-03-05T03:59:33.929Z,2.72
2023-03-05T04:00:09.065Z,2.72
2023-03-05T04:00:40.424Z,2.72
2023-03-05T04:01:13.555Z,2.72
2023-03-05T04:01:44.502Z,2.72
2023-03-05T04:02:18.822Z,2.72
2023-03-05T04:02:48.573Z,2.72
2023-03-05T04:03:11.498Z,2.72
2023-03-05T04:03:34.457Z,2.72
2023-03-05T04:04:09.127Z,2.72
2023-03-05T04:04:44.587Z,2.72
2023-03-05T04:05:12.747Z,2.72
2023-03-05T04:05:44.981Z,2.72
2023-03-05T04:06:16.639Z,2.72
2023-03-05T04:06:48.500Z,2.72
2023-03-05T04:07:11.194Z,2.72
2023-03-05T04:07:33.513Z,2.72
2023-03-05T04:08:08.534Z,2.72
2023-03-05T04:08:41.734Z,2.72
2023-03-05T04:09:13.208Z,2.77
2023-03-05T04:09:44.978Z,2.77
2023-03-05T04:10:16.603Z,2.77
2023-03-05T04:10:48.985Z,2.77
2023-03-05T04:11:11.663Z,2.77
2023-03-05T04:11:34.412Z,2.77
2023-03-05T04:12:08.363Z,2.77
2023-03-05T04:12:42.044Z,2.77
2023-03-05T04:13:12.770Z,2.77
2023-03-05T04:13:45.610Z,2.77
2023-03-05T04:14:16.541Z,2.77
2023-03-05T04:14:48.994Z,2.77
2023-03-05T04:15:12.071Z,2.77
2023-03-05T04:15:34.213Z,2.77
2023-03-05T04:16:09.172Z,2.77
2023-03-05T04:16:40.961Z,2.77
2023-03-05T04:17:13.100Z,2.77
2023-03-05T04:17:46.074Z,2.72
2023-03-05T04:18:17.017Z,2.72
2023-03-05T04:18:48.465Z,2.72
2023-03-05T04:19:11.026Z,2.72
2023-03-05T04:19:33.819Z,2.72
2023-03-05T04:20:11.906Z,2.72
2023-03-05T04:20:34.331Z,2.72
2023-03-05T04:21:12.724Z,2.72
2023-03-05T04:21:44.288Z,2.61
2023-03-05T04:22:16.430Z,2.61
2023-03-05T04:22:48.641Z,2.61
2023-03-05T04:23:14.244Z,2.61
2023-03-05T04:23:34.208Z,2.61
2023-03-05T04:24:08.428Z,2.61
2023-03-05T04:24:40.453Z,2.61
2023-03-05T04:25:12.322Z,2.61
2023-03-05T04:25:44.027Z,2.61
2023-03-05T04:26:16.347Z,2.61
2023-03-05T04:26:48.251Z,2.61
2023-03-05T04:27:13.791Z,2.61
2023-03-05T04:27:33.959Z,2.61
2023-03-05T04:28:08.323Z,2.61
2023-03-05T04:28:40.500Z,2.61
2023-03-05T04:29:12.266Z,2.61
2023-03-05T04:29:44.160Z,2.61
2023-03-05T04:30:16.241Z,2.61
2023-03-05T04:30:48.486Z,2.61
2023-03-05T04:31:13.030Z,2.61
2023-03-05T04:31:34.006Z,2.61
2023-03-05T04:32:08.408Z,2.61
2023-03-05T04:32:40.195Z,2.61
2023-03-05T04:33:12.302Z,2.61
2023-03-05T04:33:44.044Z,2.61
2023-03-05T04:34:16.357Z,2.61
2023-03-05T04:34:48.518Z,2.61
2023-03-05T04:35:11.097Z,2.61
2023-03-05T04:35:33.517Z,2.61
2023-03-05T04:36:08.353Z,2.61
2023-03-05T04:36:40.407Z,2.61
2023-03-05T04:37:12.303Z,2.61
2023-03-05T04:37:44.142Z,2.61
2023-03-05T04:38:16.225Z,2.61
2023-03-05T04:38:48.720Z,2.61
2023-03-05T04:39:11.230Z,2.61
2023-03-05T04:39:33.591Z,2.61
2023-03-05T04:40:08.448Z,2.61
2023-03-05T04:40:40.288Z,2.61
2023-03-05T04:41:12.236Z,2.61
2023-03-05T04:41:44.553Z,2.61
2023-03-05T04:42:16.304Z,2.61
2023-03-05T04:42:49.209Z,2.61
2023-03-05T04:43:11.279Z,2.61
2023-03-05T04:43:33.422Z,2.61
2023-03-05T04:44:08.334Z,2.50
2023-03-05T04:44:40.397Z,2.61
2023-03-05T04:45:12.422Z,2.61
2023-03-05T04:45:44.136Z,2.61
2023-03-05T04:46:16.272Z,2.61
2023-03-05T04:46:49.786Z,2.61
2023-03-05T04:47:11.546Z,2.61
2023-03-05T04:47:33.950Z,2.50
2023-03-05T04:48:08.563Z,2.50
2023-03-05T04:48:40.276Z,2.50
2023-03-05T04:49:12.866Z,2.50
2023-03-05T04:49:43.989Z,2.50
2023-03-05T04:50:16.694Z,2.50
2023-03-05T04:50:49.915Z,2.50
2023-03-05T04:51:11.281Z,2.50
2023-03-05T04:51:34.023Z,2.50
2023-03-05T04:52:08.315Z,2.50
2023-03-05T04:52:40.366Z,2.50
2023-03-05T04:53:12.358Z,2.50
2023-03-05T04:53:44.029Z,2.50
2023-03-05T04:54:16.328Z,2.50
2023-03-05T04:54:50.411Z,2.50
2023-03-05T04:55:11.185Z,2.50
2023-03-05T04:55:33.810Z,2.50
2023-03-05T04:56:08.328Z,2.38
2023-03-05T04:56:40.526Z,2.38
2023-03-05T04:57:12.386Z,2.38
2023-03-05T04:57:44.070Z,2.38
2023-03-05T04:58:16.344Z,2.38
2023-03-05T04:58:50.550Z,2.38
2023-03-05T04:59:12.280Z,2.38
2023-03-05T04:59:34.407Z,2.38
2023-03-05T05:00:10.066Z,2.38
2023-03-05T05:00:45.904Z,2.38
2023-03-05T05:01:12.804Z,2.38
2023-03-05T05:01:44.395Z,2.38
2023-03-05T05:02:16.374Z,2.38
2023-03-05T05:02:48.536Z,2.38
2023-03-05T05:03:12.483Z,2.38
2023-03-05T05:03:34.918Z,2.38
2023-03-05T05:04:08.670Z,2.38
2023-03-05T05:04:40.989Z,2.38
2023-03-05T05:05:12.415Z,2.38
2023-03-05T05:05:45.701Z,2.38
2023-03-05T05:06:16.349Z,2.38
2023-03-05T05:06:49.079Z,2.38
2023-03-05T05:07:11.723Z,2.38
2023-03-05T05:07:34.274Z,2.38
2023-03-05T05:08:08.521Z,2.38
2023-03-05T05:08:40.443Z,2.38
2023-03-05T05:09:12.489Z,2.38
2023-03-05T05:09:44.338Z,2.38
2023-03-05T05:10:16.506Z,2.38
2023-03-05T05:10:48.476Z,2.38
2023-03-05T05:11:12.808Z,2.38
2023-03-05T05:11:33.987Z,2.38
2023-03-05T05:12:08.374Z,2.38
2023-03-05T05:12:40.675Z,2.38
2023-03-05T05:13:12.544Z,2.38
2023-03-05T05:13:44.927Z,2.38
2023-03-05T05:14:16.387Z,2.38
2023-03-05T05:14:49.029Z,2.38
2023-03-05T05:15:11.835Z,2.38
2023-03-05T05:15:33.891Z,2.38
2023-03-05T05:16:09.097Z,2.38
2023-03-05T05:16:40.609Z,2.38
2023-03-05T05:17:12.465Z,2.50
2023-03-05T05:17:44.156Z,2.50
2023-03-05T05:18:16.530Z,2.50
2023-03-05T05:18:48.479Z,2.50
2023-03-05T05:19:11.354Z,2.50
2023-03-05T05:19:33.805Z,2.50
2023-03-05T05:20:08.802Z,2.50
2023-03-05T05:20:40.809Z,2.50
2023-03-05T05:21:12.796Z,2.50
2023-03-05T05:21:44.149Z,2.50
2023-03-05T05:22:16.348Z,2.50
2023-03-05T05:22:48.415Z,2.50
2023-03-05T05:23:11.642Z,2.50
2023-03-05T05:23:33.923Z,2.50
2023-03-05T05:24:08.410Z,2.50
2023-03-05T05:24:40.864Z,2.50
2023-03-05T05:25:12.408Z,2.50
2023-03-05T05:25:44.101Z,2.50
2023-03-05T05:26:17.790Z,2.50
2023-03-05T05:26:48.470Z,2.50
2023-03-05T05:27:12.319Z,2.50
2023-03-05T05:27:34.497Z,2.50
2023-03-05T05:28:08.601Z,2.50
2023-03-05T05:28:40.955Z,2.50
2023-03-05T05:30:02.450Z,2.50
2023-03-05T05:30:18.289Z,2.50
2023-03-05T05:30:48.757Z,2.50
2023-03-05T05:31:13.758Z,2.50
2023-03-05T05:31:34.143Z,2.50
2023-03-05T05:32:08.254Z,2.50
2023-03-05T05:32:40.322Z,2.50
2023-03-05T05:33:12.437Z,2.50
2023-03-05T05:33:44.250Z,2.50
2023-03-05T05:34:16.266Z,2.50
2023-03-05T05:34:48.352Z,2.50
2023-03-05T05:35:11.269Z,2.50
2023-03-05T05:35:33.874Z,2.50
2023-03-05T05:36:08.410Z,2.50
2023-03-05T05:36:40.695Z,2.50
2023-03-05T05:37:12.745Z,2.50
2023-03-05T05:37:44.209Z,2.50
2023-03-05T05:38:16.428Z,2.50
2023-03-05T05:38:48.287Z,2.50
2023-03-05T05:39:10.985Z,2.50
2023-03-05T05:39:33.444Z,2.61
2023-03-05T05:40:08.710Z,2.61
2023-03-05T05:40:40.449Z,2.61
2023-03-05T05:41:12.288Z,2.61
2023-03-05T05:41:44.229Z,2.61
2023-03-05T05:42:16.432Z,2.61
2023-03-05T05:42:48.620Z,2.61
2023-03-05T05:43:12.502Z,2.61
2023-03-05T05:43:34.631Z,2.61
2023-03-05T05:44:08.356Z,2.61
2023-03-05T05:44:40.635Z,2.50
2023-03-05T05:45:12.428Z,2.50
2023-03-05T05:45:44.283Z,2.50
2023-03-05T05:46:16.548Z,2.50
2023-03-05T05:46:48.429Z,2.50
2023-03-05T05:47:11.116Z,2.50
2023-03-05T05:47:33.398Z,2.50
2023-03-05T05:48:08.463Z,2.50
2023-03-05T05:48:40.556Z,2.50
2023-03-05T05:49:12.354Z,2.38
2023-03-05T05:49:44.281Z,2.38
2023-03-05T05:50:16.614Z,2.38
2023-03-05T05:50:48.441Z,2.38
2023-03-05T05:51:11.739Z,2.38
2023-03-05T05:51:34.098Z,2.27
2023-03-05T05:52:08.698Z,2.27
2023-03-05T05:52:40.307Z,2.27
2023-03-05T05:53:12.542Z,2.27
2023-03-05T05:53:44.367Z,2.27
2023-03-05T05:54:16.457Z,2.27
2023-03-05T05:54:48.388Z,2.27
2023-03-05T05:55:11.099Z,2.27
2023-03-05T05:55:33.554Z,2.27
2023-03-05T05:56:08.602Z,2.27
2023-03-05T05:56:34.459Z,2.27
2023-03-05T05:57:13.537Z,2.27
2023-03-05T05:57:44.326Z,2.27
2023-03-05T05:58:16.612Z,2.27
2023-03-05T05:58:48.515Z,2.27
2023-03-05T05:59:11.172Z,2.27
2023-03-05T05:59:33.685Z,2.27
2023-03-05T06:00:08.978Z,2.27
2023-03-05T06:00:42.256Z,2.27
2023-03-05T06:01:13.304Z,2.27
2023-03-05T06:01:44.612Z,2.27
2023-03-05T06:02:23.903Z,2.38
2023-03-05T06:02:49.197Z,2.38
2023-03-05T06:03:12.226Z,2.38
2023-03-05T06:03:34.518Z,2.38
2023-03-05T06:04:09.389Z,2.38
2023-03-05T06:04:40.503Z,2.38
2023-03-05T06:05:12.946Z,2.38
2023-03-05T06:05:44.472Z,2.38
2023-03-05T06:06:17.069Z,2.50
2023-03-05T06:06:48.424Z,2.50
2023-03-05T06:07:11.172Z,2.50
2023-03-05T06:07:35.266Z,2.50
2023-03-05T06:08:08.667Z,2.50
2023-03-05T06:08:40.533Z,2.50
2023-03-05T06:09:12.448Z,2.50
2023-03-05T06:09:44.384Z,2.50
2023-03-05T06:10:16.930Z,2.50
2023-03-05T06:10:48.577Z,2.50
2023-03-05T06:11:11.257Z,2.50
2023-03-05T06:11:34.132Z,2.50
2023-03-05T06:12:08.450Z,2.50
2023-03-05T06:12:40.428Z,2.50
2023-03-05T06:13:13.076Z,2.50
2023-03-05T06:13:44.715Z,2.50
2023-03-05T06:14:18.240Z,2.50
2023-03-05T06:14:49.693Z,2.50
2023-03-05T06:15:12.765Z,2.50
2023-03-05T06:15:35.269Z,2.50
2023-03-05T06:16:08.776Z,2.50
2023-03-05T06:16:41.550Z,2.50
2023-03-05T06:17:14.794Z,2.50
2023-03-05T06:17:44.925Z,2.50
2023-03-05T06:18:17.071Z,2.50
2023-03-05T06:18:48.552Z,2.50
2023-03-05T06:19:11.433Z,2.50
2023-03-05T06:19:36.308Z,2.50
2023-03-05T06:20:08.704Z,2.50
2023-03-05T06:20:40.751Z,2.50
2023-03-05T06:21:13.904Z,2.50
2023-03-05T06:21:44.866Z,2.50
2023-03-05T06:22:17.205Z,2.50
2023-03-05T06:22:49.071Z,2.50
2023-03-05T06:23:11.802Z,2.50
2023-03-05T06:23:35.213Z,2.50
2023-03-05T06:24:08.591Z,2.50
2023-03-05T06:24:40.887Z,2.50
2023-03-05T06:25:12.572Z,2.50
2023-03-05T06:25:44.341Z,2.50
2023-03-05T06:26:16.499Z,2.50
2023-03-05T06:26:48.629Z,2.50
2023-03-05T06:27:11.442Z,2.50
2023-03-05T06:27:33.777Z,2.50
2023-03-05T06:28:12.603Z,2.50
2023-03-05T06:28:41.278Z,2.50
2023-03-05T06:29:14.096Z,2.50
2023-03-05T06:29:44.676Z,2.50
2023-03-05T06:30:17.175Z,2.50
2023-03-05T06:30:49.034Z,2.50
2023-03-05T06:31:11.950Z,2.50
2023-03-05T06:31:37.268Z,2.50
2023-03-05T06:32:08.537Z,2.50
2023-03-05T06:32:40.783Z,2.50
2023-03-05T06:33:12.583Z,2.50
2023-03-05T06:33:44.692Z,2.50
2023-03-05T06:34:16.646Z,2.50
2023-03-05T06:34:48.660Z,2.50
2023-03-05T06:35:11.451Z,2.50
2023-03-05T06:35:33.932Z,2.50
2023-03-05T06:36:09.462Z,2.50
2023-03-05T06:36:40.726Z,2.50
2023-03-05T06:37:13.027Z,2.50
2023-03-05T06:37:44.389Z,2.50
2023-03-05T06:38:17.104Z,2.50
2023-03-05T06:38:49.100Z,2.50
2023-03-05T06:39:11.435Z,2.50
2023-03-05T06:39:33.999Z,2.50
2023-03-05T06:40:08.593Z,2.50
2023-03-05T06:40:40.428Z,2.50
2023-03-05T06:41:12.757Z,2.50
2023-03-05T06:41:44.614Z,2.50